sensor_id;sensor_type;location;lat;lon;timestamp;temperature;humidity
3678;DHT22;1855;50.934;6.958;2023-04-15T00:01:49;8.80;77.60
3678;DHT22;1855;50.934;6.958;2023-04-15T00:04:16;8.80;77.10
3678;DHT22;1855;50.934;6.958;2023-04-15T00:06:49;8.80;76.60
3678;DHT22;1855;50.934;6.958;2023-04-15T00:09:17;8.70;77.40
3678;DHT22;1855;50.934;6.958;2023-04-15T00:11:44;8.70;79.20
3678;DHT22;1855;50.934;6.958;2023-04-15T00:14:12;8.60;80.70
3678;DHT22;1855;50.934;6.958;2023-04-15T00:16:40;8.60;81.40
3678;DHT22;1855;50.934;6.958;2023-04-15T00:19:06;8.60;83.50
3678;DHT22;1855;50.934;6.958;2023-04-15T00:21:34;8.50;85.30
3678;DHT22;1855;50.934;6.958;2023-04-15T00:24:00;8.50;87.20
3678;DHT22;1855;50.934;6.958;2023-04-15T00:26:28;8.50;89.50
3678;DHT22;1855;50.934;6.958;2023-04-15T00:28:54;8.50;90.10
3678;DHT22;1855;50.934;6.958;2023-04-15T00:31:22;8.50;90.40
3678;DHT22;1855;50.934;6.958;2023-04-15T00:33:49;8.40;90.60
3678;DHT22;1855;50.934;6.958;2023-04-15T00:36:16;8.40;89.50
3678;DHT22;1855;50.934;6.958;2023-04-15T00:38:43;8.40;88.90
3678;DHT22;1855;50.934;6.958;2023-04-15T00:41:11;8.40;88.40
3678;DHT22;1855;50.934;6.958;2023-04-15T00:43:37;8.30;88.90
3678;DHT22;1855;50.934;6.958;2023-04-15T00:46:05;8.30;88.80
3678;DHT22;1855;50.934;6.958;2023-04-15T00:48:34;8.30;89.20
3678;DHT22;1855;50.934;6.958;2023-04-15T00:51:02;8.30;88.10
3678;DHT22;1855;50.934;6.958;2023-04-15T00:53:29;8.20;87.70
3678;DHT22;1855;50.934;6.958;2023-04-15T00:55:56;8.20;88.40
3678;DHT22;1855;50.934;6.958;2023-04-15T00:58:22;8.10;88.20
3678;DHT22;1855;50.934;6.958;2023-04-15T01:00:50;8.10;89.20
3678;DHT22;1855;50.934;6.958;2023-04-15T01:03:18;8.00;88.90
3678;DHT22;1855;50.934;6.958;2023-04-15T01:05:47;8.00;89.10
3678;DHT22;1855;50.934;6.958;2023-04-15T01:08:14;8.00;88.00
3678;DHT22;1855;50.934;6.958;2023-04-15T01:10:41;8.00;88.00
3678;DHT22;1855;50.934;6.958;2023-04-15T01:13:08;7.90;87.60
3678;DHT22;1855;50.934;6.958;2023-04-15T01:15:35;7.90;87.50
3678;DHT22;1855;50.934;6.958;2023-04-15T01:18:02;7.90;88.30
3678;DHT22;1855;50.934;6.958;2023-04-15T01:20:28;7.90;89.70
3678;DHT22;1855;50.934;6.958;2023-04-15T01:22:56;7.90;89.20
3678;DHT22;1855;50.934;6.958;2023-04-15T01:25:30;7.90;89.10
3678;DHT22;1855;50.934;6.958;2023-04-15T01:27:57;7.80;89.40
3678;DHT22;1855;50.934;6.958;2023-04-15T01:30:24;7.80;89.00
3678;DHT22;1855;50.934;6.958;2023-04-15T01:32:52;7.80;88.10
3678;DHT22;1855;50.934;6.958;2023-04-15T01:35:18;7.70;88.70
3678;DHT22;1855;50.934;6.958;2023-04-15T01:37:45;7.70;89.00
3678;DHT22;1855;50.934;6.958;2023-04-15T01:40:12;7.70;89.10
3678;DHT22;1855;50.934;6.958;2023-04-15T01:42:41;7.60;88.60
3678;DHT22;1855;50.934;6.958;2023-04-15T01:45:08;7.50;88.50
3678;DHT22;1855;50.934;6.958;2023-04-15T01:47:35;7.50;89.50
3678;DHT22;1855;50.934;6.958;2023-04-15T01:50:02;7.50;90.30
3678;DHT22;1855;50.934;6.958;2023-04-15T01:52:29;7.50;90.10
3678;DHT22;1855;50.934;6.958;2023-04-15T01:54:56;7.50;89.80
3678;DHT22;1855;50.934;6.958;2023-04-15T01:57:23;7.50;89.30
3678;DHT22;1855;50.934;6.958;2023-04-15T01:59:51;7.50;90.00
3678;DHT22;1855;50.934;6.958;2023-04-15T02:02:18;7.50;90.00
3678;DHT22;1855;50.934;6.958;2023-04-15T02:04:44;7.60;90.40
3678;DHT22;1855;50.934;6.958;2023-04-15T02:07:11;7.50;89.80
3678;DHT22;1855;50.934;6.958;2023-04-15T02:09:38;7.50;89.70
3678;DHT22;1855;50.934;6.958;2023-04-15T02:12:05;7.40;90.50
3678;DHT22;1855;50.934;6.958;2023-04-15T02:14:32;7.40;90.50
3678;DHT22;1855;50.934;6.958;2023-04-15T02:17:00;7.40;90.30
3678;DHT22;1855;50.934;6.958;2023-04-15T02:19:31;7.40;90.80
3678;DHT22;1855;50.934;6.958;2023-04-15T02:21:58;7.40;90.80
3678;DHT22;1855;50.934;6.958;2023-04-15T02:24:26;7.40;91.00
3678;DHT22;1855;50.934;6.958;2023-04-15T02:26:53;7.40;91.40
3678;DHT22;1855;50.934;6.958;2023-04-15T02:29:20;7.40;91.50
3678;DHT22;1855;50.934;6.958;2023-04-15T02:31:48;7.40;91.80
3678;DHT22;1855;50.934;6.958;2023-04-15T02:34:16;7.40;91.90
3678;DHT22;1855;50.934;6.958;2023-04-15T02:36:43;7.40;92.10
3678;DHT22;1855;50.934;6.958;2023-04-15T02:39:11;7.30;92.00
3678;DHT22;1855;50.934;6.958;2023-04-15T02:41:39;7.20;92.00
3678;DHT22;1855;50.934;6.958;2023-04-15T02:44:08;7.20;91.80
3678;DHT22;1855;50.934;6.958;2023-04-15T02:46:34;7.20;91.50
3678;DHT22;1855;50.934;6.958;2023-04-15T02:49:01;7.20;91.50
3678;DHT22;1855;50.934;6.958;2023-04-15T02:51:29;7.10;91.40
3678;DHT22;1855;50.934;6.958;2023-04-15T02:53:56;7.10;91.40
3678;DHT22;1855;50.934;6.958;2023-04-15T02:56:23;7.10;91.30
3678;DHT22;1855;50.934;6.958;2023-04-15T02:58:50;7.10;91.40
3678;DHT22;1855;50.934;6.958;2023-04-15T03:01:20;7.10;91.80
3678;DHT22;1855;50.934;6.958;2023-04-15T03:03:47;7.00;91.70
3678;DHT22;1855;50.934;6.958;2023-04-15T03:06:13;7.00;92.00
3678;DHT22;1855;50.934;6.958;2023-04-15T03:08:42;7.00;92.20
3678;DHT22;1855;50.934;6.958;2023-04-15T03:11:08;7.00;92.40
3678;DHT22;1855;50.934;6.958;2023-04-15T03:13:35;7.00;92.00
3678;DHT22;1855;50.934;6.958;2023-04-15T03:16:04;7.00;92.30
3678;DHT22;1855;50.934;6.958;2023-04-15T03:18:31;7.00;92.80
3678;DHT22;1855;50.934;6.958;2023-04-15T03:20:58;6.90;92.50
3678;DHT22;1855;50.934;6.958;2023-04-15T03:23:24;6.90;92.80
3678;DHT22;1855;50.934;6.958;2023-04-15T03:25:52;6.80;93.10
3678;DHT22;1855;50.934;6.958;2023-04-15T03:28:21;6.80;93.60
3678;DHT22;1855;50.934;6.958;2023-04-15T03:30:48;6.80;92.90
3678;DHT22;1855;50.934;6.958;2023-04-15T03:33:15;6.80;93.10
3678;DHT22;1855;50.934;6.958;2023-04-15T03:35:41;6.80;93.00
3678;DHT22;1855;50.934;6.958;2023-04-15T03:38:08;6.80;93.40
3678;DHT22;1855;50.934;6.958;2023-04-15T03:40:35;6.80;93.60
3678;DHT22;1855;50.934;6.958;2023-04-15T03:43:03;6.80;93.70
3678;DHT22;1855;50.934;6.958;2023-04-15T03:45:30;6.80;93.80
3678;DHT22;1855;50.934;6.958;2023-04-15T03:47:57;6.70;93.80
3678;DHT22;1855;50.934;6.958;2023-04-15T03:50:23;6.70;94.20
3678;DHT22;1855;50.934;6.958;2023-04-15T03:52:50;6.70;94.40
3678;DHT22;1855;50.934;6.958;2023-04-15T03:55:17;6.70;94.40
3678;DHT22;1855;50.934;6.958;2023-04-15T03:57:44;6.70;94.50
3678;DHT22;1855;50.934;6.958;2023-04-15T04:00:12;6.60;94.30
3678;DHT22;1855;50.934;6.958;2023-04-15T04:02:40;6.60;94.30
3678;DHT22;1855;50.934;6.958;2023-04-15T04:05:07;6.50;93.60
3678;DHT22;1855;50.934;6.958;2023-04-15T04:07:34;6.50;94.00
3678;DHT22;1855;50.934;6.958;2023-04-15T04:10:01;6.50;94.30
3678;DHT22;1855;50.934;6.958;2023-04-15T04:12:29;6.50;94.20
3678;DHT22;1855;50.934;6.958;2023-04-15T04:14:55;6.50;93.70
3678;DHT22;1855;50.934;6.958;2023-04-15T04:17:24;6.40;93.40
3678;DHT22;1855;50.934;6.958;2023-04-15T04:19:51;6.30;93.70
3678;DHT22;1855;50.934;6.958;2023-04-15T04:22:21;6.30;94.30
3678;DHT22;1855;50.934;6.958;2023-04-15T04:24:48;6.30;94.70
3678;DHT22;1855;50.934;6.958;2023-04-15T04:27:15;6.30;94.80
3678;DHT22;1855;50.934;6.958;2023-04-15T04:29:41;6.30;94.30
3678;DHT22;1855;50.934;6.958;2023-04-15T04:32:08;6.30;94.50
3678;DHT22;1855;50.934;6.958;2023-04-15T04:34:37;6.20;94.50
3678;DHT22;1855;50.934;6.958;2023-04-15T04:37:04;6.20;94.90
3678;DHT22;1855;50.934;6.958;2023-04-15T04:39:31;6.20;94.90
3678;DHT22;1855;50.934;6.958;2023-04-15T04:41:58;6.20;94.80
3678;DHT22;1855;50.934;6.958;2023-04-15T04:44:25;6.20;94.50
3678;DHT22;1855;50.934;6.958;2023-04-15T04:46:52;6.20;94.80
3678;DHT22;1855;50.934;6.958;2023-04-15T04:49:19;6.20;95.10
3678;DHT22;1855;50.934;6.958;2023-04-15T04:51:47;6.10;95.00
3678;DHT22;1855;50.934;6.958;2023-04-15T04:54:14;6.10;94.80
3678;DHT22;1855;50.934;6.958;2023-04-15T04:56:41;6.00;94.90
3678;DHT22;1855;50.934;6.958;2023-04-15T04:59:08;6.00;95.20
3678;DHT22;1855;50.934;6.958;2023-04-15T05:01:35;6.00;95.30
3678;DHT22;1855;50.934;6.958;2023-04-15T05:04:01;6.00;95.30
3678;DHT22;1855;50.934;6.958;2023-04-15T05:06:29;6.00;95.20
3678;DHT22;1855;50.934;6.958;2023-04-15T05:08:58;5.90;95.40
3678;DHT22;1855;50.934;6.958;2023-04-15T05:11:25;5.90;96.20
3678;DHT22;1855;50.934;6.958;2023-04-15T05:13:52;5.90;96.70
3678;DHT22;1855;50.934;6.958;2023-04-15T05:16:19;6.00;96.70
3678;DHT22;1855;50.934;6.958;2023-04-15T05:18:46;6.00;97.00
3678;DHT22;1855;50.934;6.958;2023-04-15T05:21:12;6.00;97.00
3678;DHT22;1855;50.934;6.958;2023-04-15T05:23:39;6.10;97.10
3678;DHT22;1855;50.934;6.958;2023-04-15T05:26:07;6.10;97.00
3678;DHT22;1855;50.934;6.958;2023-04-15T05:28:34;6.10;96.40
3678;DHT22;1855;50.934;6.958;2023-04-15T05:31:01;6.10;95.70
3678;DHT22;1855;50.934;6.958;2023-04-15T05:33:28;6.20;95.60
3678;DHT22;1855;50.934;6.958;2023-04-15T05:35:54;6.20;95.70
3678;DHT22;1855;50.934;6.958;2023-04-15T05:38:21;6.30;95.60
3678;DHT22;1855;50.934;6.958;2023-04-15T05:40:48;6.40;95.50
3678;DHT22;1855;50.934;6.958;2023-04-15T05:43:16;6.40;95.20
3678;DHT22;1855;50.934;6.958;2023-04-15T05:45:43;6.50;95.00
3678;DHT22;1855;50.934;6.958;2023-04-15T05:48:10;6.50;94.90
3678;DHT22;1855;50.934;6.958;2023-04-15T05:50:39;6.60;95.20
3678;DHT22;1855;50.934;6.958;2023-04-15T05:53:06;6.70;95.60
3678;DHT22;1855;50.934;6.958;2023-04-15T05:55:33;6.80;96.00
3678;DHT22;1855;50.934;6.958;2023-04-15T05:57:59;6.90;96.10
3678;DHT22;1855;50.934;6.958;2023-04-15T06:00:28;7.00;96.10
3678;DHT22;1855;50.934;6.958;2023-04-15T06:02:55;7.10;94.40
3678;DHT22;1855;50.934;6.958;2023-04-15T06:05:22;7.10;93.60
3678;DHT22;1855;50.934;6.958;2023-04-15T06:07:49;7.20;93.50
3678;DHT22;1855;50.934;6.958;2023-04-15T06:10:17;7.30;93.20
3678;DHT22;1855;50.934;6.958;2023-04-15T06:12:46;7.30;92.70
3678;DHT22;1855;50.934;6.958;2023-04-15T06:15:13;7.40;92.70
3678;DHT22;1855;50.934;6.958;2023-04-15T06:17:41;7.50;92.40
3678;DHT22;1855;50.934;6.958;2023-04-15T06:20:08;7.60;92.20
3678;DHT22;1855;50.934;6.958;2023-04-15T06:22:36;7.70;92.20
3678;DHT22;1855;50.934;6.958;2023-04-15T06:25:03;7.80;92.00
3678;DHT22;1855;50.934;6.958;2023-04-15T06:27:30;7.90;91.40
3678;DHT22;1855;50.934;6.958;2023-04-15T06:29:57;8.00;91.30
3678;DHT22;1855;50.934;6.958;2023-04-15T06:32:23;8.10;91.20
3678;DHT22;1855;50.934;6.958;2023-04-15T06:34:52;8.20;91.00
3678;DHT22;1855;50.934;6.958;2023-04-15T06:37:19;8.30;90.70
3678;DHT22;1855;50.934;6.958;2023-04-15T06:39:46;8.50;90.60
3678;DHT22;1855;50.934;6.958;2023-04-15T06:42:13;8.60;90.30
3678;DHT22;1855;50.934;6.958;2023-04-15T06:44:40;8.70;90.00
3678;DHT22;1855;50.934;6.958;2023-04-15T06:47:07;8.80;88.70
3678;DHT22;1855;50.934;6.958;2023-04-15T06:49:34;9.00;88.50
3678;DHT22;1855;50.934;6.958;2023-04-15T06:52:03;9.10;86.30
3678;DHT22;1855;50.934;6.958;2023-04-15T06:54:29;9.20;86.00
3678;DHT22;1855;50.934;6.958;2023-04-15T06:56:56;9.30;85.70
3678;DHT22;1855;50.934;6.958;2023-04-15T06:59:23;9.40;85.50
3678;DHT22;1855;50.934;6.958;2023-04-15T07:01:50;9.60;84.60
3678;DHT22;1855;50.934;6.958;2023-04-15T07:04:17;9.70;82.90
3678;DHT22;1855;50.934;6.958;2023-04-15T07:06:43;9.90;82.10
3678;DHT22;1855;50.934;6.958;2023-04-15T07:09:11;10.00;81.60
3678;DHT22;1855;50.934;6.958;2023-04-15T07:11:38;10.20;80.30
3678;DHT22;1855;50.934;6.958;2023-04-15T07:14:05;10.30;79.50
3678;DHT22;1855;50.934;6.958;2023-04-15T07:16:32;10.40;78.80
3678;DHT22;1855;50.934;6.958;2023-04-15T07:18:58;10.60;78.40
3678;DHT22;1855;50.934;6.958;2023-04-15T07:21:25;10.80;76.90
3678;DHT22;1855;50.934;6.958;2023-04-15T07:23:53;11.10;75.80
3678;DHT22;1855;50.934;6.958;2023-04-15T07:26:21;11.30;74.70
3678;DHT22;1855;50.934;6.958;2023-04-15T07:28:48;11.40;74.60
3678;DHT22;1855;50.934;6.958;2023-04-15T07:31:15;11.70;74.40
3678;DHT22;1855;50.934;6.958;2023-04-15T07:33:42;12.00;72.70
3678;DHT22;1855;50.934;6.958;2023-04-15T07:36:09;12.10;71.70
3678;DHT22;1855;50.934;6.958;2023-04-15T07:38:35;12.30;71.00
3678;DHT22;1855;50.934;6.958;2023-04-15T07:41:02;12.40;70.40
3678;DHT22;1855;50.934;6.958;2023-04-15T07:43:30;12.50;69.80
3678;DHT22;1855;50.934;6.958;2023-04-15T07:45:57;12.60;69.20
3678;DHT22;1855;50.934;6.958;2023-04-15T07:48:24;12.80;68.60
3678;DHT22;1855;50.934;6.958;2023-04-15T07:50:51;12.90;68.00
3678;DHT22;1855;50.934;6.958;2023-04-15T07:53:18;12.90;66.70
3678;DHT22;1855;50.934;6.958;2023-04-15T07:55:45;13.00;66.70
3678;DHT22;1855;50.934;6.958;2023-04-15T07:58:11;13.00;65.60
3678;DHT22;1855;50.934;6.958;2023-04-15T08:00:39;13.10;64.90
3678;DHT22;1855;50.934;6.958;2023-04-15T08:03:06;13.10;66.90
3678;DHT22;1855;50.934;6.958;2023-04-15T08:05:33;13.20;66.20
3678;DHT22;1855;50.934;6.958;2023-04-15T08:07:59;13.30;64.60
3678;DHT22;1855;50.934;6.958;2023-04-15T08:10:27;13.50;64.70
3678;DHT22;1855;50.934;6.958;2023-04-15T08:12:54;13.70;63.80
3678;DHT22;1855;50.934;6.958;2023-04-15T08:15:21;13.90;61.60
3678;DHT22;1855;50.934;6.958;2023-04-15T08:17:49;14.00;60.40
3678;DHT22;1855;50.934;6.958;2023-04-15T08:20:16;14.10;59.40
3678;DHT22;1855;50.934;6.958;2023-04-15T08:22:44;14.20;58.80
3678;DHT22;1855;50.934;6.958;2023-04-15T08:25:12;14.20;58.00
3678;DHT22;1855;50.934;6.958;2023-04-15T08:27:39;14.20;57.20
3678;DHT22;1855;50.934;6.958;2023-04-15T08:30:07;14.30;56.10
3678;DHT22;1855;50.934;6.958;2023-04-15T08:32:34;14.50;54.40
3678;DHT22;1855;50.934;6.958;2023-04-15T08:35:02;14.70;51.20
3678;DHT22;1855;50.934;6.958;2023-04-15T08:37:29;14.80;50.20
3678;DHT22;1855;50.934;6.958;2023-04-15T08:39:55;15.00;50.70
3678;DHT22;1855;50.934;6.958;2023-04-15T08:42:31;15.20;49.80
3678;DHT22;1855;50.934;6.958;2023-04-15T08:45:03;15.20;49.00
3678;DHT22;1855;50.934;6.958;2023-04-15T08:47:30;15.30;48.20
3678;DHT22;1855;50.934;6.958;2023-04-15T08:49:59;15.40;47.80
3678;DHT22;1855;50.934;6.958;2023-04-15T08:52:30;15.50;47.80
3678;DHT22;1855;50.934;6.958;2023-04-15T08:54:57;15.50;47.10
3678;DHT22;1855;50.934;6.958;2023-04-15T08:57:26;15.50;46.80
3678;DHT22;1855;50.934;6.958;2023-04-15T08:59:55;15.40;46.90
3678;DHT22;1855;50.934;6.958;2023-04-15T09:02:23;15.30;46.80
3678;DHT22;1855;50.934;6.958;2023-04-15T09:04:50;15.20;48.00
3678;DHT22;1855;50.934;6.958;2023-04-15T09:07:17;15.20;48.20
3678;DHT22;1855;50.934;6.958;2023-04-15T09:09:45;15.20;48.10
3678;DHT22;1855;50.934;6.958;2023-04-15T09:12:13;15.20;46.90
3678;DHT22;1855;50.934;6.958;2023-04-15T09:14:44;15.20;47.80
3678;DHT22;1855;50.934;6.958;2023-04-15T09:17:10;15.30;48.10
3678;DHT22;1855;50.934;6.958;2023-04-15T09:19:37;15.50;47.50
3678;DHT22;1855;50.934;6.958;2023-04-15T09:22:04;15.80;47.00
3678;DHT22;1855;50.934;6.958;2023-04-15T09:24:35;16.00;46.70
3678;DHT22;1855;50.934;6.958;2023-04-15T09:27:08;16.10;46.20
3678;DHT22;1855;50.934;6.958;2023-04-15T09:29:35;16.20;45.60
3678;DHT22;1855;50.934;6.958;2023-04-15T09:32:09;16.20;44.90
3678;DHT22;1855;50.934;6.958;2023-04-15T09:34:36;16.10;45.20
3678;DHT22;1855;50.934;6.958;2023-04-15T09:37:03;16.00;45.10
3678;DHT22;1855;50.934;6.958;2023-04-15T09:39:44;16.00;45.80
3678;DHT22;1855;50.934;6.958;2023-04-15T09:42:14;16.10;45.60
3678;DHT22;1855;50.934;6.958;2023-04-15T09:44:42;16.20;45.90
3678;DHT22;1855;50.934;6.958;2023-04-15T09:47:08;16.20;45.60
3678;DHT22;1855;50.934;6.958;2023-04-15T09:49:35;16.40;46.10
3678;DHT22;1855;50.934;6.958;2023-04-15T09:52:02;16.60;45.40
3678;DHT22;1855;50.934;6.958;2023-04-15T09:54:33;16.80;44.90
3678;DHT22;1855;50.934;6.958;2023-04-15T09:57:04;16.90;45.20
3678;DHT22;1855;50.934;6.958;2023-04-15T09:59:33;17.30;44.60
3678;DHT22;1855;50.934;6.958;2023-04-15T10:02:00;17.90;43.90
3678;DHT22;1855;50.934;6.958;2023-04-15T10:04:30;18.20;42.80
3678;DHT22;1855;50.934;6.958;2023-04-15T10:06:58;18.60;41.70
3678;DHT22;1855;50.934;6.958;2023-04-15T10:09:26;18.60;40.70
3678;DHT22;1855;50.934;6.958;2023-04-15T10:11:53;18.40;41.50
3678;DHT22;1855;50.934;6.958;2023-04-15T10:14:20;18.20;41.60
3678;DHT22;1855;50.934;6.958;2023-04-15T10:16:49;18.10;41.90
3678;DHT22;1855;50.934;6.958;2023-04-15T10:19:18;17.90;42.60
3678;DHT22;1855;50.934;6.958;2023-04-15T10:21:47;17.70;42.70
3678;DHT22;1855;50.934;6.958;2023-04-15T10:24:14;17.60;43.40
3678;DHT22;1855;50.934;6.958;2023-04-15T10:26:42;17.90;43.90
3678;DHT22;1855;50.934;6.958;2023-04-15T10:29:10;18.10;43.60
3678;DHT22;1855;50.934;6.958;2023-04-15T10:31:36;18.30;43.50
3678;DHT22;1855;50.934;6.958;2023-04-15T10:34:05;18.40;42.90
3678;DHT22;1855;50.934;6.958;2023-04-15T10:36:32;18.40;43.40
3678;DHT22;1855;50.934;6.958;2023-04-15T10:38:59;18.70;42.20
3678;DHT22;1855;50.934;6.958;2023-04-15T10:41:26;18.60;42.50
3678;DHT22;1855;50.934;6.958;2023-04-15T10:43:59;18.60;43.30
3678;DHT22;1855;50.934;6.958;2023-04-15T10:46:34;18.60;42.80
3678;DHT22;1855;50.934;6.958;2023-04-15T10:49:08;18.60;42.80
3678;DHT22;1855;50.934;6.958;2023-04-15T10:51:37;18.50;42.50
3678;DHT22;1855;50.934;6.958;2023-04-15T10:54:08;18.30;43.10
3678;DHT22;1855;50.934;6.958;2023-04-15T10:56:35;18.20;43.20
3678;DHT22;1855;50.934;6.958;2023-04-15T10:59:04;18.30;43.80
3678;DHT22;1855;50.934;6.958;2023-04-15T11:01:49;18.30;43.20
3678;DHT22;1855;50.934;6.958;2023-04-15T11:04:51;18.40;42.20
3678;DHT22;1855;50.934;6.958;2023-04-15T11:07:46;18.30;42.40
3678;DHT22;1855;50.934;6.958;2023-04-15T11:13:17;18.50;42.20
3678;DHT22;1855;50.934;6.958;2023-04-15T11:15:47;18.50;42.30
3678;DHT22;1855;50.934;6.958;2023-04-15T11:18:15;18.50;42.20
3678;DHT22;1855;50.934;6.958;2023-04-15T11:20:45;18.70;41.60
3678;DHT22;1855;50.934;6.958;2023-04-15T11:23:12;18.90;41.90
3678;DHT22;1855;50.934;6.958;2023-04-15T11:25:39;19.10;41.30
3678;DHT22;1855;50.934;6.958;2023-04-15T11:28:07;19.00;41.70
3678;DHT22;1855;50.934;6.958;2023-04-15T11:30:34;18.80;41.50
3678;DHT22;1855;50.934;6.958;2023-04-15T11:33:03;18.60;42.20
3678;DHT22;1855;50.934;6.958;2023-04-15T11:35:31;18.40;42.30
3678;DHT22;1855;50.934;6.958;2023-04-15T11:38:02;18.30;43.50
3678;DHT22;1855;50.934;6.958;2023-04-15T11:40:29;18.20;43.00
3678;DHT22;1855;50.934;6.958;2023-04-15T11:43:08;18.10;43.90
3678;DHT22;1855;50.934;6.958;2023-04-15T11:45:37;17.90;44.30
3678;DHT22;1855;50.934;6.958;2023-04-15T11:48:05;17.70;44.30
3678;DHT22;1855;50.934;6.958;2023-04-15T11:50:33;17.60;45.20
3678;DHT22;1855;50.934;6.958;2023-04-15T11:53:03;17.50;46.10
3678;DHT22;1855;50.934;6.958;2023-04-15T11:55:31;17.30;45.80
3678;DHT22;1855;50.934;6.958;2023-04-15T11:58:11;17.20;46.70
3678;DHT22;1855;50.934;6.958;2023-04-15T12:00:39;17.00;47.20
3678;DHT22;1855;50.934;6.958;2023-04-15T12:03:27;17.00;47.30
3678;DHT22;1855;50.934;6.958;2023-04-15T12:06:11;17.00;47.60
3678;DHT22;1855;50.934;6.958;2023-04-15T12:08:55;16.90;48.00
3678;DHT22;1855;50.934;6.958;2023-04-15T12:11:31;16.70;49.10
3678;DHT22;1855;50.934;6.958;2023-04-15T12:14:04;16.70;49.00
3678;DHT22;1855;50.934;6.958;2023-04-15T12:16:32;16.60;49.40
3678;DHT22;1855;50.934;6.958;2023-04-15T12:18:59;16.60;49.40
3678;DHT22;1855;50.934;6.958;2023-04-15T12:21:33;16.60;49.70
3678;DHT22;1855;50.934;6.958;2023-04-15T12:24:04;16.50;49.60
3678;DHT22;1855;50.934;6.958;2023-04-15T12:26:34;16.40;50.10
3678;DHT22;1855;50.934;6.958;2023-04-15T12:29:02;16.30;50.50
3678;DHT22;1855;50.934;6.958;2023-04-15T12:31:29;16.00;51.10
3678;DHT22;1855;50.934;6.958;2023-04-15T12:33:56;15.70;52.80
3678;DHT22;1855;50.934;6.958;2023-04-15T12:36:24;15.50;53.60
3678;DHT22;1855;50.934;6.958;2023-04-15T12:38:50;15.50;53.90
3678;DHT22;1855;50.934;6.958;2023-04-15T12:41:19;15.30;53.90
3678;DHT22;1855;50.934;6.958;2023-04-15T12:43:46;15.20;54.50
3678;DHT22;1855;50.934;6.958;2023-04-15T12:46:13;15.10;55.40
3678;DHT22;1855;50.934;6.958;2023-04-15T12:48:40;15.00;56.00
3678;DHT22;1855;50.934;6.958;2023-04-15T12:51:07;14.90;56.80
3678;DHT22;1855;50.934;6.958;2023-04-15T12:53:33;14.90;57.60
3678;DHT22;1855;50.934;6.958;2023-04-15T12:56:00;14.90;57.80
3678;DHT22;1855;50.934;6.958;2023-04-15T12:58:28;14.70;58.60
3678;DHT22;1855;50.934;6.958;2023-04-15T13:00:55;14.60;59.50
3678;DHT22;1855;50.934;6.958;2023-04-15T13:03:22;14.40;60.10
3678;DHT22;1855;50.934;6.958;2023-04-15T13:05:49;14.30;61.40
3678;DHT22;1855;50.934;6.958;2023-04-15T13:08:17;14.20;62.10
3678;DHT22;1855;50.934;6.958;2023-04-15T13:10:44;14.10;63.30
3678;DHT22;1855;50.934;6.958;2023-04-15T13:13:11;14.00;63.90
3678;DHT22;1855;50.934;6.958;2023-04-15T13:15:39;13.80;64.70
3678;DHT22;1855;50.934;6.958;2023-04-15T13:18:06;13.80;65.60
3678;DHT22;1855;50.934;6.958;2023-04-15T13:20:34;13.80;66.00
3678;DHT22;1855;50.934;6.958;2023-04-15T13:23:01;13.70;65.80
3678;DHT22;1855;50.934;6.958;2023-04-15T13:25:27;13.60;66.00
3678;DHT22;1855;50.934;6.958;2023-04-15T13:27:54;13.60;65.90
3678;DHT22;1855;50.934;6.958;2023-04-15T13:30:22;13.50;66.70
3678;DHT22;1855;50.934;6.958;2023-04-15T13:32:50;13.50;67.30
3678;DHT22;1855;50.934;6.958;2023-04-15T13:35:18;13.40;67.90
3678;DHT22;1855;50.934;6.958;2023-04-15T13:37:45;13.40;68.50
3678;DHT22;1855;50.934;6.958;2023-04-15T13:40:12;13.40;68.70
3678;DHT22;1855;50.934;6.958;2023-04-15T13:42:41;13.30;69.30
3678;DHT22;1855;50.934;6.958;2023-04-15T13:45:08;13.30;70.40
3678;DHT22;1855;50.934;6.958;2023-04-15T13:47:35;13.10;69.80
3678;DHT22;1855;50.934;6.958;2023-04-15T13:50:04;13.10;70.30
3678;DHT22;1855;50.934;6.958;2023-04-15T13:52:31;13.00;71.00
3678;DHT22;1855;50.934;6.958;2023-04-15T13:54:58;13.00;71.30
3678;DHT22;1855;50.934;6.958;2023-04-15T13:57:24;12.90;71.90
3678;DHT22;1855;50.934;6.958;2023-04-15T13:59:51;12.90;72.50
3678;DHT22;1855;50.934;6.958;2023-04-15T14:02:20;12.80;71.90
3678;DHT22;1855;50.934;6.958;2023-04-15T14:04:47;12.80;72.70
3678;DHT22;1855;50.934;6.958;2023-04-15T14:07:16;12.80;72.40
3678;DHT22;1855;50.934;6.958;2023-04-15T14:09:43;12.80;72.70
3678;DHT22;1855;50.934;6.958;2023-04-15T14:12:09;12.80;72.10
3678;DHT22;1855;50.934;6.958;2023-04-15T14:14:36;12.80;72.30
3678;DHT22;1855;50.934;6.958;2023-04-15T14:17:03;12.90;72.60
3678;DHT22;1855;50.934;6.958;2023-04-15T14:19:30;12.90;73.00
3678;DHT22;1855;50.934;6.958;2023-04-15T14:21:57;12.90;73.50
3678;DHT22;1855;50.934;6.958;2023-04-15T14:24:25;13.10;73.10
3678;DHT22;1855;50.934;6.958;2023-04-15T14:26:52;13.20;72.60
3678;DHT22;1855;50.934;6.958;2023-04-15T14:29:19;13.30;72.90
3678;DHT22;1855;50.934;6.958;2023-04-15T14:31:45;13.50;71.30
3678;DHT22;1855;50.934;6.958;2023-04-15T14:34:13;13.60;72.70
3678;DHT22;1855;50.934;6.958;2023-04-15T14:36:40;13.70;73.70
3678;DHT22;1855;50.934;6.958;2023-04-15T14:39:07;13.70;74.50
3678;DHT22;1855;50.934;6.958;2023-04-15T14:41:35;13.70;74.60
3678;DHT22;1855;50.934;6.958;2023-04-15T14:44:02;13.60;75.10
3678;DHT22;1855;50.934;6.958;2023-04-15T14:46:28;13.60;77.80
3678;DHT22;1855;50.934;6.958;2023-04-15T14:48:55;13.40;77.50
3678;DHT22;1855;50.934;6.958;2023-04-15T14:51:22;13.30;78.20
3678;DHT22;1855;50.934;6.958;2023-04-15T14:53:49;13.10;80.90
3678;DHT22;1855;50.934;6.958;2023-04-15T14:56:15;13.00;81.70
3678;DHT22;1855;50.934;6.958;2023-04-15T14:58:43;12.90;83.50
3678;DHT22;1855;50.934;6.958;2023-04-15T15:01:10;12.70;82.70
3678;DHT22;1855;50.934;6.958;2023-04-15T15:03:38;12.70;82.70
3678;DHT22;1855;50.934;6.958;2023-04-15T15:06:05;12.70;83.90
3678;DHT22;1855;50.934;6.958;2023-04-15T15:08:31;12.80;82.70
3678;DHT22;1855;50.934;6.958;2023-04-15T15:10:58;12.90;84.90
3678;DHT22;1855;50.934;6.958;2023-04-15T15:13:25;12.90;86.40
3678;DHT22;1855;50.934;6.958;2023-04-15T15:15:53;13.00;86.90
3678;DHT22;1855;50.934;6.958;2023-04-15T15:18:20;13.00;89.50
3678;DHT22;1855;50.934;6.958;2023-04-15T15:20:47;12.90;90.30
3678;DHT22;1855;50.934;6.958;2023-04-15T15:23:13;12.80;90.30
3678;DHT22;1855;50.934;6.958;2023-04-15T15:25:40;12.70;90.80
3678;DHT22;1855;50.934;6.958;2023-04-15T15:28:07;12.60;90.30
3678;DHT22;1855;50.934;6.958;2023-04-15T15:30:34;12.50;90.20
3678;DHT22;1855;50.934;6.958;2023-04-15T15:33:02;12.40;91.60
3678;DHT22;1855;50.934;6.958;2023-04-15T15:35:28;12.40;91.80
3678;DHT22;1855;50.934;6.958;2023-04-15T15:37:55;12.20;90.50
3678;DHT22;1855;50.934;6.958;2023-04-15T15:40:22;12.10;91.70
3678;DHT22;1855;50.934;6.958;2023-04-15T15:42:49;12.10;92.50
3678;DHT22;1855;50.934;6.958;2023-04-15T15:45:16;12.10;92.20
3678;DHT22;1855;50.934;6.958;2023-04-15T15:47:43;12.00;93.00
3678;DHT22;1855;50.934;6.958;2023-04-15T15:50:12;11.90;93.70
3678;DHT22;1855;50.934;6.958;2023-04-15T15:52:39;11.90;93.80
3678;DHT22;1855;50.934;6.958;2023-04-15T15:55:06;11.80;93.60
3678;DHT22;1855;50.934;6.958;2023-04-15T15:57:33;11.80;94.00
3678;DHT22;1855;50.934;6.958;2023-04-15T16:00:01;11.80;95.10
3678;DHT22;1855;50.934;6.958;2023-04-15T16:02:28;11.70;95.10
3678;DHT22;1855;50.934;6.958;2023-04-15T16:04:56;11.70;95.40
3678;DHT22;1855;50.934;6.958;2023-04-15T16:07:24;11.70;95.60
3678;DHT22;1855;50.934;6.958;2023-04-15T16:09:51;11.60;96.20
3678;DHT22;1855;50.934;6.958;2023-04-15T16:12:18;11.50;95.90
3678;DHT22;1855;50.934;6.958;2023-04-15T16:14:45;11.50;96.30
3678;DHT22;1855;50.934;6.958;2023-04-15T16:17:12;11.30;97.20